sensor_id;sensor_type;location;lat;lon;timestamp;P1;durP1;ratioP1;P2;durP2;ratioP2
55732;SDS011;41637;52.364;9.910;2023-09-19T00:00:31;1.92;;;0.80;;
55732;SDS011;41637;52.364;9.910;2023-09-19T00:03:00;2.33;;;1.10;;
55732;SDS011;41637;52.364;9.910;2023-09-19T00:05:28;1.95;;;0.70;;
55732;SDS011;41637;52.364;9.910;2023-09-19T00:07:56;2.03;;;0.88;;
55732;SDS011;41637;52.364;9.910;2023-09-19T00:10:27;2.67;;;0.70;;
55732;SDS011;41637;52.364;9.910;2023-09-19T00:12:58;2.78;;;0.90;;
55732;SDS011;41637;52.364;9.910;2023-09-19T00:15:50;2.40;;;0.80;;
55732;SDS011;41637;52.364;9.910;2023-09-19T00:18:18;1.77;;;0.80;;
55732;SDS011;41637;52.364;9.910;2023-09-19T00:20:48;2.50;;;0.80;;
55732;SDS011;41637;52.364;9.910;2023-09-19T00:23:16;2.50;;;0.90;;
55732;SDS011;41637;52.364;9.910;2023-09-19T00:25:43;1.90;;;0.77;;
55732;SDS011;41637;52.364;9.910;2023-09-19T00:28:11;2.40;;;0.88;;
55732;SDS011;41637;52.364;9.910;2023-09-19T00:30:39;1.90;;;0.90;;
55732;SDS011;41637;52.364;9.910;2023-09-19T00:33:09;3.58;;;1.30;;
55732;SDS011;41637;52.364;9.910;2023-09-19T00:35:38;2.78;;;1.20;;
55732;SDS011;41637;52.364;9.910;2023-09-19T00:38:04;2.78;;;1.25;;
55732;SDS011;41637;52.364;9.910;2023-09-19T00:40:33;4.00;;;1.20;;
55732;SDS011;41637;52.364;9.910;2023-09-19T00:43:00;2.67;;;1.10;;
55732;SDS011;41637;52.364;9.910;2023-09-19T00:45:27;3.92;;;1.40;;
55732;SDS011;41637;52.364;9.910;2023-09-19T00:47:55;3.15;;;1.30;;
55732;SDS011;41637;52.364;9.910;2023-09-19T00:50:24;2.53;;;1.10;;
55732;SDS011;41637;52.364;9.910;2023-09-19T00:52:53;2.33;;;1.30;;
55732;SDS011;41637;52.364;9.910;2023-09-19T00:55:24;4.15;;;1.45;;
55732;SDS011;41637;52.364;9.910;2023-09-19T00:57:52;3.80;;;1.50;;
55732;SDS011;41637;52.364;9.910;2023-09-19T01:00:21;3.58;;;1.67;;
55732;SDS011;41637;52.364;9.910;2023-09-19T01:02:49;4.13;;;1.70;;
55732;SDS011;41637;52.364;9.910;2023-09-19T01:05:16;5.00;;;1.77;;
55732;SDS011;41637;52.364;9.910;2023-09-19T01:07:45;4.75;;;2.00;;
55732;SDS011;41637;52.364;9.910;2023-09-19T01:10:12;3.80;;;1.77;;
55732;SDS011;41637;52.364;9.910;2023-09-19T01:20:37;3.83;;;2.00;;
55732;SDS011;41637;52.364;9.910;2023-09-19T01:23:23;5.10;;;2.30;;
55732;SDS011;41637;52.364;9.910;2023-09-19T01:26:07;4.13;;;2.30;;
55732;SDS011;41637;52.364;9.910;2023-09-19T01:28:52;6.20;;;2.10;;
55732;SDS011;41637;52.364;9.910;2023-09-19T01:31:24;7.80;;;2.70;;
55732;SDS011;41637;52.364;9.910;2023-09-19T01:36:27;6.90;;;2.50;;
55732;SDS011;41637;52.364;9.910;2023-09-19T01:39:00;6.07;;;2.50;;
55732;SDS011;41637;52.364;9.910;2023-09-19T01:41:53;4.70;;;2.38;;
55732;SDS011;41637;52.364;9.910;2023-09-19T01:47:23;5.95;;;2.80;;
55732;SDS011;41637;52.364;9.910;2023-09-19T01:50:11;5.95;;;3.00;;
55732;SDS011;41637;52.364;9.910;2023-09-19T01:52:57;5.03;;;2.80;;
55732;SDS011;41637;52.364;9.910;2023-09-19T01:55:32;4.70;;;2.53;;
55732;SDS011;41637;52.364;9.910;2023-09-19T01:58:30;7.20;;;3.00;;
55732;SDS011;41637;52.364;9.910;2023-09-19T02:01:01;4.82;;;2.40;;
55732;SDS011;41637;52.364;9.910;2023-09-19T02:03:28;5.70;;;2.67;;
55732;SDS011;41637;52.364;9.910;2023-09-19T02:05:56;6.47;;;2.80;;
55732;SDS011;41637;52.364;9.910;2023-09-19T02:08:23;6.32;;;2.83;;
55732;SDS011;41637;52.364;9.910;2023-09-19T02:10:50;8.15;;;2.95;;
55732;SDS011;41637;52.364;9.910;2023-09-19T02:13:19;4.87;;;2.87;;
55732;SDS011;41637;52.364;9.910;2023-09-19T02:15:47;7.82;;;2.70;;
55732;SDS011;41637;52.364;9.910;2023-09-19T02:18:14;6.63;;;2.83;;
55732;SDS011;41637;52.364;9.910;2023-09-19T02:20:42;6.55;;;3.10;;
55732;SDS011;41637;52.364;9.910;2023-09-19T02:23:12;4.82;;;2.60;;
55732;SDS011;41637;52.364;9.910;2023-09-19T02:25:40;5.68;;;3.08;;
55732;SDS011;41637;52.364;9.910;2023-09-19T02:28:07;6.27;;;2.97;;
55732;SDS011;41637;52.364;9.910;2023-09-19T02:30:35;7.47;;;2.78;;
55732;SDS011;41637;52.364;9.910;2023-09-19T02:33:03;7.47;;;2.78;;
55732;SDS011;41637;52.364;9.910;2023-09-19T02:35:30;4.25;;;2.47;;
55732;SDS011;41637;52.364;9.910;2023-09-19T02:38:02;7.75;;;3.00;;
55732;SDS011;41637;52.364;9.910;2023-09-19T02:40:33;8.25;;;2.70;;
55732;SDS011;41637;52.364;9.910;2023-09-19T02:43:03;5.73;;;2.93;;
55732;SDS011;41637;52.364;9.910;2023-09-19T02:45:31;5.78;;;2.53;;
55732;SDS011;41637;52.364;9.910;2023-09-19T02:47:59;6.15;;;2.80;;
55732;SDS011;41637;52.364;9.910;2023-09-19T02:50:27;7.38;;;2.75;;
55732;SDS011;41637;52.364;9.910;2023-09-19T02:52:54;8.50;;;3.20;;
55732;SDS011;41637;52.364;9.910;2023-09-19T02:55:21;7.20;;;2.70;;
55732;SDS011;41637;52.364;9.910;2023-09-19T02:57:54;6.22;;;2.92;;
55732;SDS011;41637;52.364;9.910;2023-09-19T03:00:22;6.90;;;3.15;;
55732;SDS011;41637;52.364;9.910;2023-09-19T03:02:55;5.15;;;2.95;;
55732;SDS011;41637;52.364;9.910;2023-09-19T03:05:24;7.82;;;2.92;;
55732;SDS011;41637;52.364;9.910;2023-09-19T03:07:51;6.53;;;3.20;;
55732;SDS011;41637;52.364;9.910;2023-09-19T03:10:20;6.07;;;3.23;;
55732;SDS011;41637;52.364;9.910;2023-09-19T03:12:47;7.35;;;3.10;;
55732;SDS011;41637;52.364;9.910;2023-09-19T03:15:14;7.07;;;3.10;;
55732;SDS011;41637;52.364;9.910;2023-09-19T03:17:44;8.65;;;3.13;;
55732;SDS011;41637;52.364;9.910;2023-09-19T03:20:12;5.05;;;2.85;;
55732;SDS011;41637;52.364;9.910;2023-09-19T03:22:41;10.77;;;3.53;;
55732;SDS011;41637;52.364;9.910;2023-09-19T03:25:08;6.97;;;2.70;;
55732;SDS011;41637;52.364;9.910;2023-09-19T03:27:40;7.32;;;2.55;;
55732;SDS011;41637;52.364;9.910;2023-09-19T03:30:08;8.10;;;2.85;;
55732;SDS011;41637;52.364;9.910;2023-09-19T03:32:36;7.47;;;2.77;;
55732;SDS011;41637;52.364;9.910;2023-09-19T03:35:03;5.65;;;2.70;;
55732;SDS011;41637;52.364;9.910;2023-09-19T03:37:34;7.53;;;2.58;;
55732;SDS011;41637;52.364;9.910;2023-09-19T03:40:01;7.10;;;2.70;;
55732;SDS011;41637;52.364;9.910;2023-09-19T03:42:31;6.88;;;2.50;;
55732;SDS011;41637;52.364;9.910;2023-09-19T03:44:58;7.45;;;2.53;;
55732;SDS011;41637;52.364;9.910;2023-09-19T03:47:27;6.75;;;2.63;;
55732;SDS011;41637;52.364;9.910;2023-09-19T03:49:55;9.45;;;2.72;;
55732;SDS011;41637;52.364;9.910;2023-09-19T03:52:22;7.03;;;2.30;;
55732;SDS011;41637;52.364;9.910;2023-09-19T03:54:49;5.97;;;2.60;;
55732;SDS011;41637;52.364;9.910;2023-09-19T03:57:16;7.07;;;2.80;;
55732;SDS011;41637;52.364;9.910;2023-09-19T03:59:47;7.32;;;2.63;;
55732;SDS011;41637;52.364;9.910;2023-09-19T04:02:14;8.45;;;2.53;;
55732;SDS011;41637;52.364;9.910;2023-09-19T04:04:50;7.43;;;2.55;;
55732;SDS011;41637;52.364;9.910;2023-09-19T04:07:19;8.05;;;2.75;;
55732;SDS011;41637;52.364;9.910;2023-09-19T04:09:49;6.78;;;2.42;;
55732;SDS011;41637;52.364;9.910;2023-09-19T04:12:16;7.72;;;2.45;;
55732;SDS011;41637;52.364;9.910;2023-09-19T04:14:46;9.43;;;2.60;;
55732;SDS011;41637;52.364;9.910;2023-09-19T04:17:13;6.03;;;2.30;;
55732;SDS011;41637;52.364;9.910;2023-09-19T04:19:40;8.88;;;2.80;;
55732;SDS011;41637;52.364;9.910;2023-09-19T04:22:08;8.35;;;2.85;;
55732;SDS011;41637;52.364;9.910;2023-09-19T04:24:35;9.88;;;2.60;;
55732;SDS011;41637;52.364;9.910;2023-09-19T04:27:04;8.45;;;2.88;;
55732;SDS011;41637;52.364;9.910;2023-09-19T04:29:31;9.30;;;3.17;;
55732;SDS011;41637;52.364;9.910;2023-09-19T04:31:59;7.53;;;2.65;;
55732;SDS011;41637;52.364;9.910;2023-09-19T04:34:26;6.00;;;2.30;;
55732;SDS011;41637;52.364;9.910;2023-09-19T04:36:53;5.88;;;2.70;;
55732;SDS011;41637;52.364;9.910;2023-09-19T04:39:20;7.97;;;2.45;;
55732;SDS011;41637;52.364;9.910;2023-09-19T04:41:47;7.47;;;3.00;;
55732;SDS011;41637;52.364;9.910;2023-09-19T04:44:14;6.90;;;2.67;;
55732;SDS011;41637;52.364;9.910;2023-09-19T04:46:42;5.20;;;2.75;;
55732;SDS011;41637;52.364;9.910;2023-09-19T04:49:09;9.80;;;3.53;;
55732;SDS011;41637;52.364;9.910;2023-09-19T04:51:36;8.27;;;3.22;;
55732;SDS011;41637;52.364;9.910;2023-09-19T04:54:03;8.63;;;3.10;;
55732;SDS011;41637;52.364;9.910;2023-09-19T04:56:30;9.18;;;3.70;;
55732;SDS011;41637;52.364;9.910;2023-09-19T04:58:58;6.32;;;3.38;;
55732;SDS011;41637;52.364;9.910;2023-09-19T05:01:26;6.57;;;3.70;;
55732;SDS011;41637;52.364;9.910;2023-09-19T05:03:53;7.47;;;3.30;;
55732;SDS011;41637;52.364;9.910;2023-09-19T05:06:20;7.82;;;3.80;;
55732;SDS011;41637;52.364;9.910;2023-09-19T05:08:48;10.98;;;4.22;;
55732;SDS011;41637;52.364;9.910;2023-09-19T05:11:18;9.68;;;4.03;;
55732;SDS011;41637;52.364;9.910;2023-09-19T05:13:45;11.52;;;4.57;;
55732;SDS011;41637;52.364;9.910;2023-09-19T05:16:12;10.32;;;4.10;;
55732;SDS011;41637;52.364;9.910;2023-09-19T05:18:39;9.75;;;4.40;;
55732;SDS011;41637;52.364;9.910;2023-09-19T05:21:06;7.93;;;4.20;;
55732;SDS011;41637;52.364;9.910;2023-09-19T05:23:34;8.80;;;4.35;;
55732;SDS011;41637;52.364;9.910;2023-09-19T05:26:01;9.98;;;5.00;;
55732;SDS011;41637;52.364;9.910;2023-09-19T05:28:28;10.10;;;4.30;;
55732;SDS011;41637;52.364;9.910;2023-09-19T05:30:56;7.60;;;4.90;;
55732;SDS011;41637;52.364;9.910;2023-09-19T05:33:22;8.45;;;3.63;;
55732;SDS011;41637;52.364;9.910;2023-09-19T05:35:49;9.00;;;4.20;;
55732;SDS011;41637;52.364;9.910;2023-09-19T05:38:16;10.57;;;5.00;;
55732;SDS011;41637;52.364;9.910;2023-09-19T05:40:45;6.25;;;3.60;;
55732;SDS011;41637;52.364;9.910;2023-09-19T05:43:13;13.35;;;4.93;;
55732;SDS011;41637;52.364;9.910;2023-09-19T05:45:41;11.82;;;5.28;;
55732;SDS011;41637;52.364;9.910;2023-09-19T05:48:16;10.77;;;4.93;;
55732;SDS011;41637;52.364;9.910;2023-09-19T05:50:43;10.53;;;4.77;;
55732;SDS011;41637;52.364;9.910;2023-09-19T05:53:13;9.25;;;4.55;;
55732;SDS011;41637;52.364;9.910;2023-09-19T05:55:41;6.60;;;3.90;;
55732;SDS011;41637;52.364;9.910;2023-09-19T05:58:08;9.27;;;5.10;;
55732;SDS011;41637;52.364;9.910;2023-09-19T06:00:36;7.90;;;3.67;;
55732;SDS011;41637;52.364;9.910;2023-09-19T06:03:05;9.73;;;4.18;;
55732;SDS011;41637;52.364;9.910;2023-09-19T06:05:32;10.02;;;3.78;;
55732;SDS011;41637;52.364;9.910;2023-09-19T06:07:59;8.07;;;3.80;;
55732;SDS011;41637;52.364;9.910;2023-09-19T06:10:27;11.10;;;3.95;;
55732;SDS011;41637;52.364;9.910;2023-09-19T06:12:55;11.13;;;3.92;;
55732;SDS011;41637;52.364;9.910;2023-09-19T06:15:25;11.43;;;3.92;;
55732;SDS011;41637;52.364;9.910;2023-09-19T06:17:53;10.73;;;3.80;;
55732;SDS011;41637;52.364;9.910;2023-09-19T06:20:24;6.00;;;3.38;;
55732;SDS011;41637;52.364;9.910;2023-09-19T06:22:52;7.22;;;3.40;;
55732;SDS011;41637;52.364;9.910;2023-09-19T06:25:20;5.82;;;3.30;;
55732;SDS011;41637;52.364;9.910;2023-09-19T06:27:49;14.55;;;4.60;;
55732;SDS011;41637;52.364;9.910;2023-09-19T06:30:20;8.47;;;3.47;;
55732;SDS011;41637;52.364;9.910;2023-09-19T06:32:57;9.93;;;4.03;;
55732;SDS011;41637;52.364;9.910;2023-09-19T06:35:25;10.60;;;4.20;;
55732;SDS011;41637;52.364;9.910;2023-09-19T06:37:53;7.80;;;3.40;;
55732;SDS011;41637;52.364;9.910;2023-09-19T06:40:20;6.80;;;3.30;;
55732;SDS011;41637;52.364;9.910;2023-09-19T06:42:49;12.40;;;5.35;;
55732;SDS011;41637;52.364;9.910;2023-09-19T06:45:18;9.75;;;3.70;;
55732;SDS011;41637;52.364;9.910;2023-09-19T06:47:45;8.73;;;3.70;;
55732;SDS011;41637;52.364;9.910;2023-09-19T06:50:21;8.45;;;3.60;;
55732;SDS011;41637;52.364;9.910;2023-09-19T06:52:52;10.00;;;3.35;;
55732;SDS011;41637;52.364;9.910;2023-09-19T06:55:22;9.80;;;3.35;;
55732;SDS011;41637;52.364;9.910;2023-09-19T06:57:52;10.63;;;3.90;;
55732;SDS011;41637;52.364;9.910;2023-09-19T07:00:21;8.57;;;3.23;;
55732;SDS011;41637;52.364;9.910;2023-09-19T07:03:00;7.90;;;3.17;;
55732;SDS011;41637;52.364;9.910;2023-09-19T07:05:31;9.70;;;2.90;;
55732;SDS011;41637;52.364;9.910;2023-09-19T07:07:58;6.68;;;2.97;;
55732;SDS011;41637;52.364;9.910;2023-09-19T07:10:26;13.15;;;4.35;;
55732;SDS011;41637;52.364;9.910;2023-09-19T07:12:58;8.32;;;2.53;;
55732;SDS011;41637;52.364;9.910;2023-09-19T07:15:26;6.10;;;2.88;;
55732;SDS011;41637;52.364;9.910;2023-09-19T07:17:54;8.15;;;3.00;;
55732;SDS011;41637;52.364;9.910;2023-09-19T07:20:23;8.77;;;2.25;;
55732;SDS011;41637;52.364;9.910;2023-09-19T07:22:55;7.97;;;2.17;;
55732;SDS011;41637;52.364;9.910;2023-09-19T07:25:22;11.13;;;2.20;;
55732;SDS011;41637;52.364;9.910;2023-09-19T07:27:49;6.72;;;1.90;;
55732;SDS011;41637;52.364;9.910;2023-09-19T07:30:17;9.90;;;2.47;;
55732;SDS011;41637;52.364;9.910;2023-09-19T07:32:44;8.55;;;2.00;;
55732;SDS011;41637;52.364;9.910;2023-09-19T07:35:11;5.43;;;2.20;;
55732;SDS011;41637;52.364;9.910;2023-09-19T07:37:38;12.57;;;2.07;;
55732;SDS011;41637;52.364;9.910;2023-09-19T07:40:05;7.10;;;2.25;;
55732;SDS011;41637;52.364;9.910;2023-09-19T07:42:36;6.30;;;1.90;;
55732;SDS011;41637;52.364;9.910;2023-09-19T07:45:05;8.55;;;1.92;;
55732;SDS011;41637;52.364;9.910;2023-09-19T07:47:33;10.30;;;2.10;;
55732;SDS011;41637;52.364;9.910;2023-09-19T07:50:01;8.48;;;1.73;;
55732;SDS011;41637;52.364;9.910;2023-09-19T07:52:29;7.30;;;1.83;;
55732;SDS011;41637;52.364;9.910;2023-09-19T07:54:56;5.60;;;1.45;;
55732;SDS011;41637;52.364;9.910;2023-09-19T07:57:24;6.75;;;1.73;;
55732;SDS011;41637;52.364;9.910;2023-09-19T07:59:51;6.87;;;1.60;;
55732;SDS011;41637;52.364;9.910;2023-09-19T08:02:18;7.65;;;1.85;;
55732;SDS011;41637;52.364;9.910;2023-09-19T08:04:45;5.45;;;1.40;;
55732;SDS011;41637;52.364;9.910;2023-09-19T08:07:13;8.02;;;1.92;;
55732;SDS011;41637;52.364;9.910;2023-09-19T08:09:40;6.85;;;1.55;;
55732;SDS011;41637;52.364;9.910;2023-09-19T08:12:07;8.23;;;1.70;;
55732;SDS011;41637;52.364;9.910;2023-09-19T08:14:36;7.70;;;2.20;;
55732;SDS011;41637;52.364;9.910;2023-09-19T08:17:08;5.97;;;1.40;;
55732;SDS011;41637;52.364;9.910;2023-09-19T08:19:35;10.25;;;2.28;;
55732;SDS011;41637;52.364;9.910;2023-09-19T08:22:03;6.40;;;2.08;;
55732;SDS011;41637;52.364;9.910;2023-09-19T08:24:30;7.57;;;1.70;;
55732;SDS011;41637;52.364;9.910;2023-09-19T08:26:57;9.50;;;1.98;;
55732;SDS011;41637;52.364;9.910;2023-09-19T08:29:24;7.17;;;2.07;;
55732;SDS011;41637;52.364;9.910;2023-09-19T08:31:54;8.52;;;2.10;;
55732;SDS011;41637;52.364;9.910;2023-09-19T08:34:23;6.17;;;2.33;;
55732;SDS011;41637;52.364;9.910;2023-09-19T08:36:51;6.55;;;1.90;;
55732;SDS011;41637;52.364;9.910;2023-09-19T08:39:19;8.43;;;2.50;;
55732;SDS011;41637;52.364;9.910;2023-09-19T08:41:46;8.80;;;2.53;;
55732;SDS011;41637;52.364;9.910;2023-09-19T08:44:13;6.25;;;1.63;;
55732;SDS011;41637;52.364;9.910;2023-09-19T08:46:41;6.60;;;2.38;;
55732;SDS011;41637;52.364;9.910;2023-09-19T08:49:12;7.82;;;2.00;;
55732;SDS011;41637;52.364;9.910;2023-09-19T08:51:53;6.53;;;1.60;;
55732;SDS011;41637;52.364;9.910;2023-09-19T08:54:37;5.90;;;1.50;;
55732;SDS011;41637;52.364;9.910;2023-09-19T08:57:07;5.73;;;2.07;;
55732;SDS011;41637;52.364;9.910;2023-09-19T08:59:38;9.37;;;2.80;;
55732;SDS011;41637;52.364;9.910;2023-09-19T09:02:12;8.00;;;1.73;;
55732;SDS011;41637;52.364;9.910;2023-09-19T09:04:41;6.50;;;2.10;;
55732;SDS011;41637;52.364;9.910;2023-09-19T09:07:11;6.13;;;1.58;;
55732;SDS011;41637;52.364;9.910;2023-09-19T09:09:43;5.85;;;1.60;;
55732;SDS011;41637;52.364;9.910;2023-09-19T09:12:13;7.80;;;1.50;;
55732;SDS011;41637;52.364;9.910;2023-09-19T09:14:44;5.05;;;1.60;;
55732;SDS011;41637;52.364;9.910;2023-09-19T09:17:16;7.95;;;1.80;;
55732;SDS011;41637;52.364;9.910;2023-09-19T09:19:47;4.43;;;1.45;;
55732;SDS011;41637;52.364;9.910;2023-09-19T09:22:14;4.35;;;1.40;;
55732;SDS011;41637;52.364;9.910;2023-09-19T09:24:51;6.65;;;1.67;;
55732;SDS011;41637;52.364;9.910;2023-09-19T09:27:24;5.53;;;1.42;;
55732;SDS011;41637;52.364;9.910;2023-09-19T09:29:52;6.30;;;1.73;;
55732;SDS011;41637;52.364;9.910;2023-09-19T09:32:22;4.82;;;1.63;;
55732;SDS011;41637;52.364;9.910;2023-09-19T09:34:52;3.75;;;1.17;;
55732;SDS011;41637;52.364;9.910;2023-09-19T09:37:24;6.23;;;1.63;;
55732;SDS011;41637;52.364;9.910;2023-09-19T09:39:56;4.45;;;1.25;;
55732;SDS011;41637;52.364;9.910;2023-09-19T09:42:34;5.97;;;1.45;;
55732;SDS011;41637;52.364;9.910;2023-09-19T09:48:05;7.38;;;1.75;;
55732;SDS011;41637;52.364;9.910;2023-09-19T09:50:48;5.00;;;1.27;;
55732;SDS011;41637;52.364;9.910;2023-09-19T09:55:59;4.97;;;1.40;;
55732;SDS011;41637;52.364;9.910;2023-09-19T09:58:34;6.25;;;1.50;;
55732;SDS011;41637;52.364;9.910;2023-09-19T10:01:20;4.70;;;1.33;;
55732;SDS011;41637;52.364;9.910;2023-09-19T10:03:47;7.28;;;1.75;;
55732;SDS011;41637;52.364;9.910;2023-09-19T10:06:15;6.97;;;1.55;;
55732;SDS011;41637;52.364;9.910;2023-09-19T10:12:03;5.75;;;1.50;;
55732;SDS011;41637;52.364;9.910;2023-09-19T10:14:35;6.30;;;1.70;;
55732;SDS011;41637;52.364;9.910;2023-09-19T10:17:04;4.93;;;1.42;;
55732;SDS011;41637;52.364;9.910;2023-09-19T10:22:36;5.35;;;1.60;;
55732;SDS011;41637;52.364;9.910;2023-09-19T10:25:04;7.95;;;1.90;;
55732;SDS011;41637;52.364;9.910;2023-09-19T10:27:35;7.28;;;1.75;;
55732;SDS011;41637;52.364;9.910;2023-09-19T10:30:07;6.75;;;1.83;;
55732;SDS011;41637;52.364;9.910;2023-09-19T10:32:37;9.80;;;2.10;;
55732;SDS011;41637;52.364;9.910;2023-09-19T10:35:07;7.50;;;1.70;;
55732;SDS011;41637;52.364;9.910;2023-09-19T10:37:35;7.03;;;1.95;;
55732;SDS011;41637;52.364;9.910;2023-09-19T10:40:04;5.85;;;1.55;;
55732;SDS011;41637;52.364;9.910;2023-09-19T10:42:35;6.68;;;1.70;;
55732;SDS011;41637;52.364;9.910;2023-09-19T10:45:04;6.63;;;1.88;;
55732;SDS011;41637;52.364;9.910;2023-09-19T10:47:34;6.18;;;1.67;;
55732;SDS011;41637;52.364;9.910;2023-09-19T10:50:05;6.85;;;1.50;;
55732;SDS011;41637;52.364;9.910;2023-09-19T10:52:40;7.30;;;1.75;;
55732;SDS011;41637;52.364;9.910;2023-09-19T10:55:09;6.50;;;1.67;;
55732;SDS011;41637;52.364;9.910;2023-09-19T10:57:45;8.35;;;1.77;;
55732;SDS011;41637;52.364;9.910;2023-09-19T11:00:13;7.03;;;1.50;;
55732;SDS011;41637;52.364;9.910;2023-09-19T11:05:39;4.35;;;1.60;;
55732;SDS011;41637;52.364;9.910;2023-09-19T11:08:07;6.33;;;1.93;;
55732;SDS011;41637;52.364;9.910;2023-09-19T11:10:47;5.03;;;1.95;;
55732;SDS011;41637;52.364;9.910;2023-09-19T11:21:53;6.40;;;1.90;;
55732;SDS011;41637;52.364;9.910;2023-09-19T11:26:40;7.10;;;1.83;;
55732;SDS011;41637;52.364;9.910;2023-09-19T11:29:26;5.97;;;1.52;;
55732;SDS011;41637;52.364;9.910;2023-09-19T11:31:55;9.10;;;1.65;;
55732;SDS011;41637;52.364;9.910;2023-09-19T11:37:03;4.43;;;1.57;;
55732;SDS011;41637;52.364;9.910;2023-09-19T11:39:31;8.90;;;2.00;;
55732;SDS011;41637;52.364;9.910;2023-09-19T11:41:59;6.38;;;1.67;;
55732;SDS011;41637;52.364;9.910;2023-09-19T11:46:56;4.97;;;1.60;;
55732;SDS011;41637;52.364;9.910;2023-09-19T11:49:26;5.18;;;1.80;;
55732;SDS011;41637;52.364;9.910;2023-09-19T11:52:00;7.03;;;1.70;;
55732;SDS011;41637;52.364;9.910;2023-09-19T11:54:27;5.80;;;1.70;;
55732;SDS011;41637;52.364;9.910;2023-09-19T11:56:58;5.75;;;1.73;;
55732;SDS011;41637;52.364;9.910;2023-09-19T11:59:27;6.40;;;1.60;;
55732;SDS011;41637;52.364;9.910;2023-09-19T12:04:33;6.00;;;1.80;;
55732;SDS011;41637;52.364;9.910;2023-09-19T12:07:08;4.90;;;1.42;;
55732;SDS011;41637;52.364;9.910;2023-09-19T12:09:44;8.52;;;2.15;;
55732;SDS011;41637;52.364;9.910;2023-09-19T12:12:24;5.68;;;1.55;;
55732;SDS011;41637;52.364;9.910;2023-09-19T12:14:55;5.28;;;1.80;;
55732;SDS011;41637;52.364;9.910;2023-09-19T12:17:35;6.20;;;1.83;;
55732;SDS011;41637;52.364;9.910;2023-09-19T12:20:03;7.20;;;1.67;;
55732;SDS011;41637;52.364;9.910;2023-09-19T12:22:44;6.05;;;1.73;;
55732;SDS011;41637;52.364;9.910;2023-09-19T12:25:13;5.82;;;1.63;;
55732;SDS011;41637;52.364;9.910;2023-09-19T12:27:47;5.38;;;1.80;;
55732;SDS011;41637;52.364;9.910;2023-09-19T12:30:19;5.73;;;2.03;;
55732;SDS011;41637;52.364;9.910;2023-09-19T12:32:53;7.32;;;2.53;;
55732;SDS011;41637;52.364;9.910;2023-09-19T12:35:32;5.63;;;1.90;;
55732;SDS011;41637;52.364;9.910;2023-09-19T12:38:03;4.53;;;1.50;;
55732;SDS011;41637;52.364;9.910;2023-09-19T12:40:31;7.65;;;2.08;;
55732;SDS011;41637;52.364;9.910;2023-09-19T12:43:00;6.18;;;1.95;;
55732;SDS011;41637;52.364;9.910;2023-09-19T12:45:31;7.03;;;1.70;;
55732;SDS011;41637;52.364;9.910;2023-09-19T12:48:18;6.47;;;1.60;;
55732;SDS011;41637;52.364;9.910;2023-09-19T12:51:12;6.78;;;2.00;;
55732;SDS011;41637;52.364;9.910;2023-09-19T12:53:40;7.65;;;1.90;;
55732;SDS011;41637;52.364;9.910;2023-09-19T12:56:13;5.97;;;1.80;;
55732;SDS011;41637;52.364;9.910;2023-09-19T13:01:23;6.90;;;1.88;;
55732;SDS011;41637;52.364;9.910;2023-09-19T13:06:48;7.30;;;2.60;;
55732;SDS011;41637;52.364;9.910;2023-09-19T13:09:17;6.07;;;1.73;;
55732;SDS011;41637;52.364;9.910;2023-09-19T13:11:49;16.02;;;2.50;;
55732;SDS011;41637;52.364;9.910;2023-09-19T13:14:18;6.83;;;2.00;;
55732;SDS011;41637;52.364;9.910;2023-09-19T13:16:56;6.97;;;2.37;;
55732;SDS011;41637;52.364;9.910;2023-09-19T13:19:40;6.05;;;1.73;;
55732;SDS011;41637;52.364;9.910;2023-09-19T13:25:10;5.10;;;1.60;;
55732;SDS011;41637;52.364;9.910;2023-09-19T13:27:46;7.53;;;1.75;;
55732;SDS011;41637;52.364;9.910;2023-09-19T13:30:24;5.97;;;1.83;;
55732;SDS011;41637;52.364;9.910;2023-09-19T13:32:53;5.75;;;1.75;;
55732;SDS011;41637;52.364;9.910;2023-09-19T13:35:37;6.75;;;2.08;;
55732;SDS011;41637;52.364;9.910;2023-09-19T13:38:06;6.25;;;1.77;;
55732;SDS011;41637;52.364;9.910;2023-09-19T13:40:38;4.53;;;1.63;;
55732;SDS011;41637;52.364;9.910;2023-09-19T13:43:08;6.77;;;2.20;;
55732;SDS011;41637;52.364;9.910;2023-09-19T13:45:35;5.07;;;1.80;;
55732;SDS011;41637;52.364;9.910;2023-09-19T13:48:03;6.90;;;2.22;;
55732;SDS011;41637;52.364;9.910;2023-09-19T13:50:30;5.72;;;1.95;;
55732;SDS011;41637;52.364;9.910;2023-09-19T13:52:57;4.38;;;1.85;;
55732;SDS011;41637;52.364;9.910;2023-09-19T13:55:27;5.68;;;1.63;;
55732;SDS011;41637;52.364;9.910;2023-09-19T13:57:54;6.35;;;1.65;;
55732;SDS011;41637;52.364;9.910;2023-09-19T14:00:22;6.20;;;1.67;;
55732;SDS011;41637;52.364;9.910;2023-09-19T14:02:49;6.30;;;1.85;;
55732;SDS011;41637;52.364;9.910;2023-09-19T14:05:18;4.82;;;1.77;;
55732;SDS011;41637;52.364;9.910;2023-09-19T14:07:47;6.22;;;1.90;;
55732;SDS011;41637;52.364;9.910;2023-09-19T14:10:14;6.32;;;1.92;;
55732;SDS011;41637;52.364;9.910;2023-09-19T14:12:42;7.70;;;1.85;;
55732;SDS011;41637;52.364;9.910;2023-09-19T14:15:11;6.07;;;1.80;;
55732;SDS011;41637;52.364;9.910;2023-09-19T14:17:38;6.32;;;1.70;;
55732;SDS011;41637;52.364;9.910;2023-09-19T14:20:06;5.30;;;1.73;;
55732;SDS011;41637;52.364;9.910;2023-09-19T14:22:33;4.00;;;1.73;;
55732;SDS011;41637;52.364;9.910;2023-09-19T14:25:00;5.40;;;2.25;;
55732;SDS011;41637;52.364;9.910;2023-09-19T14:27:27;6.82;;;1.92;;
55732;SDS011;41637;52.364;9.910;2023-09-19T14:29:54;7.85;;;2.30;;
55732;SDS011;41637;52.364;9.910;2023-09-19T14:32:21;5.28;;;1.85;;
55732;SDS011;41637;52.364;9.910;2023-09-19T14:34:49;7.65;;;2.80;;
55732;SDS011;41637;52.364;9.910;2023-09-19T14:37:15;5.47;;;1.73;;
55732;SDS011;41637;52.364;9.910;2023-09-19T14:39:47;4.15;;;1.30;;
55732;SDS011;41637;52.364;9.910;2023-09-19T14:42:14;3.97;;;1.30;;
55732;SDS011;41637;52.364;9.910;2023-09-19T14:44:44;5.20;;;1.53;;
55732;SDS011;41637;52.364;9.910;2023-09-19T14:47:11;5.45;;;1.85;;
55732;SDS011;41637;52.364;9.910;2023-09-19T14:49:40;4.82;;;1.73;;
55732;SDS011;41637;52.364;9.910;2023-09-19T14:52:08;5.55;;;1.77;;
55732;SDS011;41637;52.364;9.910;2023-09-19T14:54:36;6.97;;;1.50;;
55732;SDS011;41637;52.364;9.910;2023-09-19T14:57:08;6.38;;;1.75;;
55732;SDS011;41637;52.364;9.910;2023-09-19T14:59:35;5.38;;;2.10;;
55732;SDS011;41637;52.364;9.910;2023-09-19T15:02:04;4.10;;;1.42;;
55732;SDS011;41637;52.364;9.910;2023-09-19T15:04:31;6.30;;;1.50;;
55732;SDS011;41637;52.364;9.910;2023-09-19T15:06:59;4.60;;;1.85;;
55732;SDS011;41637;52.364;9.910;2023-09-19T15:09:26;5.70;;;1.58;;
55732;SDS011;41637;52.364;9.910;2023-09-19T15:11:53;7.38;;;2.28;;
55732;SDS011;41637;52.364;9.910;2023-09-19T15:14:20;5.05;;;1.70;;
55732;SDS011;41637;52.364;9.910;2023-09-19T15:16:48;4.78;;;1.40;;
55732;SDS011;41637;52.364;9.910;2023-09-19T15:19:15;6.13;;;1.83;;
55732;SDS011;41637;52.364;9.910;2023-09-19T15:21:43;5.05;;;1.67;;
55732;SDS011;41637;52.364;9.910;2023-09-19T15:24:10;4.70;;;1.70;;
55732;SDS011;41637;52.364;9.910;2023-09-19T15:26:37;4.65;;;1.40;;
55732;SDS011;41637;52.364;9.910;2023-09-19T15:29:07;5.63;;;1.40;;
55732;SDS011;41637;52.364;9.910;2023-09-19T15:31:34;4.72;;;1.70;;
55732;SDS011;41637;52.364;9.910;2023-09-19T15:34:03;4.27;;;1.40;;
55732;SDS011;41637;52.364;9.910;2023-09-19T15:36:31;5.20;;;1.48;;
55732;SDS011;41637;52.364;9.910;2023-09-19T15:41:27;5.40;;;1.58;;
55732;SDS011;41637;52.364;9.910;2023-09-19T15:43:58;5.38;;;1.70;;
55732;SDS011;41637;52.364;9.910;2023-09-19T15:46:29;5.45;;;1.60;;
55732;SDS011;41637;52.364;9.910;2023-09-19T15:48:57;4.97;;;1.52;;
55732;SDS011;41637;52.364;9.910;2023-09-19T15:51:24;3.83;;;1.42;;
55732;SDS011;41637;52.364;9.910;2023-09-19T15:53:51;3.78;;;1.30;;
55732;SDS011;41637;52.364;9.910;2023-09-19T15:56:20;5.33;;;1.60;;
55732;SDS011;41637;52.364;9.910;2023-09-19T15:58:48;4.50;;;1.23;;